Time;durP1;ratioP1;P1;durP2;ratioP2;P2;SDS_P1;SDS_P2;PMS_P1;PMS_P2;Temp;Humidity;BMP_temperature;BMP_pressure;BME280_temperature;BME280_humidity;BME280_pressure;Samples;Min_cycle;Max_cycle;Signal;HPM_P1;HPM_P2
2022/01/13 00:00:59;;;;;;;42.37;25.67;;;6.20;99.90;;;;;;5028650;28;20740;-26
2022/01/13 00:03:27;;;;;;;39.90;24.73;;;6.20;99.90;;;;;;5026436;28;20287;-26
2022/01/13 00:05:55;;;;;;;44.97;25.30;;;6.20;99.90;;;;;;5028387;28;20569;-26
2022/01/13 00:08:24;;;;;;;43.63;26.53;;;6.20;99.90;;;;;;5028894;28;20220;-26
2022/01/13 00:10:54;;;;;;;44.30;25.87;;;6.20;99.90;;;;;;5026545;28;20232;-26
2022/01/13 00:13:25;;;;;;;46.00;26.90;;;6.10;99.90;;;;;;5028287;28;20197;-26
2022/01/13 00:16:24;;;;;;;41.00;25.83;;;6.10;99.90;;;;;;5028519;28;20586;-26
2022/01/13 00:18:51;;;;;;;42.17;25.77;;;6.10;99.90;;;;;;5027321;28;20211;-26
2022/01/13 00:24:17;;;;;;;42.53;26.40;;;6.00;99.90;;;;;;5019835;28;20205;-26
2022/01/13 00:26:48;;;;;;;45.77;27.57;;;6.10;99.90;;;;;;5027971;28;20251;-26
2022/01/13 00:29:21;;;;;;;46.07;27.67;;;6.00;99.90;;;;;;5026387;28;20228;-26
2022/01/13 00:31:49;;;;;;;44.47;28.60;;;6.00;99.90;;;;;;5026668;28;20216;-24
2022/01/13 00:34:18;;;;;;;47.37;29.47;;;6.00;99.90;;;;;;5027253;28;20292;-24
2022/01/13 00:36:45;;;;;;;47.83;29.00;;;6.00;99.90;;;;;;5026714;28;20193;-24
2022/01/13 00:39:14;;;;;;;44.40;28.00;;;6.10;99.90;;;;;;5027866;28;20721;-24
2022/01/13 00:41:41;;;;;;;50.00;29.40;;;6.10;99.90;;;;;;5026112;28;20247;-24
2022/01/13 00:44:09;;;;;;;50.43;29.40;;;6.10;99.90;;;;;;5027367;28;20231;-24
2022/01/13 00:46:45;;;;;;;50.50;28.50;;;6.00;99.90;;;;;;5027637;28;20211;-24
2022/01/13 00:49:14;;;;;;;52.03;29.87;;;6.10;99.90;;;;;;5025473;28;20228;-24
2022/01/13 00:51:46;;;;;;;52.27;29.47;;;6.10;99.90;;;;;;5027845;28;20220;-24
2022/01/13 00:54:13;;;;;;;52.47;30.17;;;6.10;99.90;;;;;;5027597;28;20247;-24
2022/01/13 00:56:41;;;;;;;54.83;30.17;;;6.10;99.90;;;;;;5027861;28;20205;-26
2022/01/13 00:59:11;;;;;;;54.43;29.97;;;6.10;99.90;;;;;;5026267;28;20204;-26
2022/01/13 01:01:43;;;;;;;57.77;29.90;;;6.00;99.90;;;;;;5026114;28;20991;-26
2022/01/13 01:04:12;;;;;;;53.57;28.57;;;6.10;99.90;;;;;;5026380;28;20905;-26
2022/01/13 01:06:40;;;;;;;54.90;29.80;;;6.10;99.90;;;;;;5016593;28;20200;-26
2022/01/13 01:09:16;;;;;;;49.20;28.70;;;6.00;99.90;;;;;;5034038;28;20233;-26
2022/01/13 01:11:46;;;;;;;54.23;29.37;;;6.00;99.90;;;;;;5032612;28;20207;-26
2022/01/13 01:14:18;;;;;;;55.50;29.63;;;6.00;99.90;;;;;;5034046;28;20204;-26
2022/01/13 01:16:47;;;;;;;60.63;29.73;;;6.10;99.90;;;;;;5034133;28;20201;-26
2022/01/13 01:19:25;;;;;;;54.00;29.13;;;6.00;99.90;;;;;;5033172;28;20650;-26
2022/01/13 01:22:18;;;;;;;54.00;28.90;;;6.00;99.90;;;;;;5033193;28;20203;-26
2022/01/13 01:25:03;;;;;;;55.30;29.83;;;6.00;99.90;;;;;;5034255;28;20208;-26
2022/01/13 01:27:38;;;;;;;57.67;30.73;;;6.00;99.90;;;;;;5033563;28;20746;-26
2022/01/13 01:30:21;;;;;;;58.50;30.47;;;6.00;99.90;;;;;;5034251;28;20196;-26
2022/01/13 01:32:49;;;;;;;54.33;29.17;;;5.90;99.90;;;;;;5033399;28;20203;-26
2022/01/13 01:35:18;;;;;;;63.70;31.67;;;6.00;99.90;;;;;;5033846;28;20223;-26
2022/01/13 01:37:48;;;;;;;62.03;30.00;;;5.90;99.90;;;;;;5032442;28;20682;-26
2022/01/13 01:40:15;;;;;;;58.77;29.33;;;5.90;99.90;;;;;;5033989;28;20755;-26
2022/01/13 01:42:45;;;;;;;59.93;28.90;;;5.90;99.90;;;;;;5033368;28;20292;-26
2022/01/13 01:45:15;;;;;;;61.87;30.13;;;5.90;99.90;;;;;;5020831;28;20217;-24
2022/01/13 01:47:44;;;;;;;56.90;28.73;;;5.90;99.90;;;;;;5015765;28;20308;-24
2022/01/13 01:50:18;;;;;;;58.63;29.00;;;5.80;99.90;;;;;;5013714;28;20231;-24
2022/01/13 01:52:51;;;;;;;57.87;29.87;;;5.80;99.90;;;;;;5032157;28;20702;-24
2022/01/13 01:55:22;;;;;;;60.90;29.67;;;5.80;99.90;;;;;;5033994;28;20197;-24
2022/01/13 01:57:51;;;;;;;58.07;29.53;;;5.80;99.90;;;;;;5031551;28;20679;-24
2022/01/13 02:00:22;;;;;;;59.20;30.20;;;5.80;99.90;;;;;;5033982;28;20205;-24
2022/01/13 02:02:49;;;;;;;60.43;29.40;;;5.80;99.90;;;;;;5032669;28;20205;-24
2022/01/13 02:05:16;;;;;;;59.00;29.33;;;5.80;99.90;;;;;;5033642;28;20757;-24
2022/01/13 02:07:44;;;;;;;56.57;28.43;;;5.70;99.90;;;;;;5033289;28;20216;-24
2022/01/13 02:10:11;;;;;;;61.27;29.80;;;5.70;99.90;;;;;;5033406;28;20291;-24
2022/01/13 02:12:45;;;;;;;61.43;28.63;;;5.70;99.90;;;;;;5032940;28;20201;-24
2022/01/13 02:18:15;;;;;;;62.83;29.17;;;5.60;99.90;;;;;;5026329;28;20570;-25
2022/01/13 02:20:48;;;;;;;62.40;30.57;;;5.60;99.90;;;;;;5027136;28;20219;-24
2022/01/13 02:23:30;;;;;;;60.80;29.23;;;5.60;99.90;;;;;;5028892;28;20628;-24
2022/01/13 02:25:59;;;;;;;56.13;29.17;;;5.60;99.90;;;;;;5029904;28;20215;-24
2022/01/13 02:28:29;;;;;;;63.20;29.13;;;5.60;99.90;;;;;;5030235;28;20235;-25
2022/01/13 02:30:59;;;;;;;61.40;30.13;;;5.60;99.90;;;;;;5030055;28;20993;-24
2022/01/13 02:33:26;;;;;;;62.23;29.07;;;5.60;99.90;;;;;;5027804;28;20207;-24
2022/01/13 02:36:17;;;;;;;56.33;28.70;;;5.50;99.90;;;;;;5028906;28;20208;-24
2022/01/13 02:39:19;;;;;;;57.30;27.83;;;5.60;99.90;;;;;;4996480;28;20575;-24
2022/01/13 02:41:47;;;;;;;63.20;29.67;;;5.50;99.90;;;;;;5029817;28;20295;-24
2022/01/13 02:44:21;;;;;;;62.77;28.93;;;5.50;99.90;;;;;;5029338;28;20568;-24
2022/01/13 02:47:09;;;;;;;60.77;30.03;;;5.60;99.90;;;;;;5028720;28;20659;-24
2022/01/13 02:49:59;;;;;;;59.97;28.10;;;5.60;99.90;;;;;;5029606;28;20801;-24
2022/01/13 02:52:28;;;;;;;59.63;29.40;;;5.50;99.90;;;;;;5028500;28;20205;-24
2022/01/13 02:54:58;;;;;;;59.50;29.37;;;5.50;99.90;;;;;;5029818;28;20767;-24
2022/01/13 02:57:25;;;;;;;57.33;27.70;;;5.50;99.90;;;;;;5029644;28;20205;-24
2022/01/13 02:59:53;;;;;;;49.90;25.80;;;5.50;99.90;;;;;;5029714;28;20594;-24
2022/01/13 03:02:28;;;;;;;56.27;27.37;;;5.50;99.90;;;;;;5029713;28;20209;-24
2022/01/13 03:04:55;;;;;;;51.27;26.17;;;5.50;99.90;;;;;;5029593;28;20727;-24
2022/01/13 03:07:26;;;;;;;51.70;25.47;;;5.40;99.90;;;;;;5029547;28;20566;-24
2022/01/13 03:09:55;;;;;;;48.50;24.87;;;5.40;99.90;;;;;;5029596;28;20610;-24
2022/01/13 03:12:25;;;;;;;51.13;26.90;;;5.40;99.90;;;;;;5029106;28;20727;-24
2022/01/13 03:14:52;;;;;;;52.27;26.40;;;5.40;99.90;;;;;;5022964;28;20211;-24
2022/01/13 03:17:19;;;;;;;59.57;27.57;;;5.40;99.90;;;;;;5015662;28;20208;-24
2022/01/13 03:19:49;;;;;;;57.73;27.20;;;5.30;99.90;;;;;;5028934;28;20200;-24
2022/01/13 03:22:26;;;;;;;56.23;26.67;;;5.30;99.90;;;;;;5027998;28;20362;-24
2022/01/13 03:24:57;;;;;;;57.60;27.87;;;5.30;99.90;;;;;;5028011;28;20258;-26
2022/01/13 03:27:33;;;;;;;58.67;27.73;;;5.30;99.90;;;;;;5028877;28;20213;-26
2022/01/13 03:30:09;;;;;;;59.37;26.97;;;5.20;99.90;;;;;;5029278;28;20237;-26
2022/01/13 03:32:37;;;;;;;57.83;26.20;;;5.20;99.90;;;;;;5028479;28;20185;-26
2022/01/13 03:35:08;;;;;;;55.67;26.47;;;5.20;99.90;;;;;;5029096;28;20240;-26
2022/01/13 03:37:38;;;;;;;59.70;27.63;;;5.20;99.90;;;;;;5028846;28;20215;-26
2022/01/13 03:40:08;;;;;;;50.90;25.47;;;5.20;99.90;;;;;;5028968;28;20205;-26
2022/01/13 03:42:36;;;;;;;51.83;25.57;;;5.20;99.90;;;;;;5028256;28;20213;-26
2022/01/13 03:45:04;;;;;;;50.00;25.03;;;5.20;99.90;;;;;;5021810;28;20209;-26
2022/01/13 03:47:34;;;;;;;52.13;26.23;;;5.10;99.90;;;;;;5008344;28;20776;-26
2022/01/13 03:50:03;;;;;;;52.80;25.67;;;5.10;99.90;;;;;;5009000;28;20320;-26
2022/01/13 03:52:31;;;;;;;54.57;26.33;;;5.10;99.90;;;;;;5024441;28;20304;-26
2022/01/13 03:55:23;;;;;;;58.63;26.73;;;5.10;99.90;;;;;;5028866;28;20243;-26
2022/01/13 03:58:17;;;;;;;56.93;26.83;;;5.10;99.90;;;;;;5028152;28;20621;-26
2022/01/13 04:01:14;;;;;;;56.27;26.03;;;5.10;99.90;;;;;;5027648;28;20224;-26
2022/01/13 04:03:42;;;;;;;50.50;25.40;;;5.00;99.90;;;;;;5028074;28;20288;-26
2022/01/13 04:06:40;;;;;;;52.40;26.40;;;5.00;99.90;;;;;;5028574;28;20205;-24
2022/01/13 04:09:32;;;;;;;60.40;27.87;;;5.00;99.90;;;;;;5028352;28;20714;-24
2022/01/13 04:12:03;;;;;;;56.33;26.70;;;5.00;99.90;;;;;;5027836;28;20193;-27
2022/01/13 04:14:56;;;;;;;62.73;28.23;;;4.90;99.90;;;;;;5028363;28;20205;-27
2022/01/13 04:17:24;;;;;;;65.97;27.67;;;4.90;99.90;;;;;;5028931;28;20615;-26
2022/01/13 04:19:52;;;;;;;62.03;28.37;;;4.90;99.90;;;;;;5027811;28;20203;-26
2022/01/13 04:22:20;;;;;;;59.20;26.80;;;4.90;99.90;;;;;;5028181;28;20212;-24
2022/01/13 04:24:51;;;;;;;57.53;27.33;;;4.90;99.90;;;;;;5027932;28;20220;-24
2022/01/13 04:27:25;;;;;;;57.43;26.23;;;4.90;99.90;;;;;;5027734;28;20296;-24
2022/01/13 04:30:46;;;;;;;55.47;25.87;;;4.90;99.90;;;;;;5028046;28;20255;-24
2022/01/13 04:32:40;;;;;;;52.80;25.43;;;4.90;99.90;;;;;;5026241;28;20316;-24
2022/01/13 04:35:12;;;;;;;54.27;25.10;;;4.90;99.90;;;;;;5028057;28;20239;-24
2022/01/13 04:37:42;;;;;;;58.97;27.23;;;4.90;99.90;;;;;;5026272;28;20291;-24
2022/01/13 04:40:09;;;;;;;53.57;24.80;;;4.90;99.90;;;;;;5027449;28;20577;-24
2022/01/13 04:42:41;;;;;;;58.67;26.70;;;4.90;99.90;;;;;;5027295;28;20679;-25
2022/01/13 04:45:11;;;;;;;49.73;24.50;;;4.90;99.90;;;;;;5027462;28;20200;-24
2022/01/13 04:47:38;;;;;;;57.00;26.73;;;4.90;99.90;;;;;;5027297;28;20671;-24
2022/01/13 04:50:08;;;;;;;53.33;25.70;;;4.90;99.90;;;;;;5027458;28;20695;-24
2022/01/13 04:52:35;;;;;;;50.10;24.77;;;4.80;99.90;;;;;;5027630;28;20205;-24
2022/01/13 04:55:09;;;;;;;49.90;23.80;;;4.80;99.90;;;;;;5027859;28;20557;-24
2022/01/13 04:57:36;;;;;;;50.33;24.17;;;4.80;99.90;;;;;;5027596;28;20231;-24
2022/01/13 05:00:08;;;;;;;49.17;25.10;;;4.80;99.90;;;;;;5027852;28;20234;-24
2022/01/13 05:02:38;;;;;;;49.90;24.13;;;4.80;99.90;;;;;;5025696;28;20598;-24
2022/01/13 05:05:06;;;;;;;45.03;23.23;;;4.80;99.90;;;;;;5027721;28;20627;-24
2022/01/13 05:07:34;;;;;;;50.40;24.60;;;4.80;99.90;;;;;;5027562;28;20300;-24
2022/01/13 05:10:04;;;;;;;51.80;25.60;;;4.80;99.90;;;;;;5027829;28;20221;-24
2022/01/13 05:12:42;;;;;;;45.93;24.10;;;4.70;99.90;;;;;;5026989;28;20193;-24
2022/01/13 05:15:16;;;;;;;47.13;24.07;;;4.70;99.90;;;;;;5028049;28;20207;-24
2022/01/13 05:20:27;;;;;;;50.43;23.93;;;4.70;99.90;;;;;;5027608;28;20208;-24
2022/01/13 05:22:55;;;;;;;49.30;23.20;;;4.70;99.90;;;;;;5027227;28;20200;-24
2022/01/13 05:25:23;;;;;;;43.97;22.77;;;4.70;99.90;;;;;;5027627;28;20224;-24
2022/01/13 05:27:55;;;;;;;44.87;23.83;;;4.70;99.90;;;;;;5025406;28;20205;-25
2022/01/13 05:30:22;;;;;;;45.73;23.57;;;4.70;99.90;;;;;;5027731;28;20660;-24
2022/01/13 05:32:49;;;;;;;46.43;22.70;;;4.70;99.90;;;;;;5026703;28;20232;-24
2022/01/13 05:35:17;;;;;;;43.90;23.67;;;4.70;99.90;;;;;;5027239;28;20336;-24
2022/01/13 05:37:46;;;;;;;41.17;22.70;;;4.60;99.90;;;;;;5027316;28;20232;-24
2022/01/13 05:40:41;;;;;;;41.63;22.80;;;4.70;99.90;;;;;;5027358;28;20213;-27
2022/01/13 05:43:30;;;;;;;45.97;24.30;;;4.60;99.90;;;;;;5005327;28;20791;-27
2022/01/13 05:46:36;;;;;;;47.37;23.97;;;4.60;99.90;;;;;;4946497;29;20906;-24
2022/01/13 05:49:03;;;;;;;42.63;22.57;;;4.60;99.90;;;;;;4945507;29;20228;-27
2022/01/13 05:51:33;;;;;;;38.30;21.97;;;4.60;99.90;;;;;;4980332;28;20650;-25
2022/01/13 05:54:00;;;;;;;41.10;22.20;;;4.60;99.90;;;;;;5031284;28;20200;-24
2022/01/13 05:56:30;;;;;;;41.87;23.13;;;4.60;99.90;;;;;;5030558;28;20201;-24
2022/01/13 05:59:00;;;;;;;40.83;22.53;;;4.60;99.90;;;;;;5030615;28;20217;-24
2022/01/13 06:01:27;;;;;;;42.33;22.70;;;4.50;99.90;;;;;;5031370;28;20228;-24
2022/01/13 06:03:54;;;;;;;41.23;22.33;;;4.60;99.90;;;;;;5029851;28;20205;-24
2022/01/13 06:06:24;;;;;;;40.80;22.43;;;4.50;99.90;;;;;;5030608;28;20307;-24
2022/01/13 06:08:51;;;;;;;41.93;22.97;;;4.50;99.90;;;;;;5030363;28;20220;-24
2022/01/13 06:11:22;;;;;;;41.67;23.20;;;4.50;99.90;;;;;;5030377;28;20216;-24
2022/01/13 06:13:51;;;;;;;41.80;22.90;;;4.50;99.90;;;;;;5030249;28;20197;-24
2022/01/13 06:16:21;;;;;;;46.60;24.20;;;4.50;99.90;;;;;;5030505;28;20213;-24
2022/01/13 06:18:51;;;;;;;47.77;25.77;;;4.40;99.90;;;;;;5029558;28;20197;-24
2022/01/13 06:21:18;;;;;;;46.63;25.77;;;4.40;99.90;;;;;;5030541;28;20632;-24
2022/01/13 06:23:45;;;;;;;47.60;26.07;;;4.40;99.90;;;;;;5030147;28;20205;-24
2022/01/13 06:26:12;;;;;;;49.20;27.60;;;4.40;99.90;;;;;;5029870;28;20201;-24
2022/01/13 06:28:40;;;;;;;45.93;26.13;;;4.40;99.90;;;;;;5030192;28;20193;-24
2022/01/13 06:31:07;;;;;;;44.60;25.30;;;4.40;99.90;;;;;;5030248;28;20240;-25
2022/01/13 06:33:35;;;;;;;48.17;25.70;;;4.40;99.90;;;;;;5028956;28;20667;-24
2022/01/13 06:36:05;;;;;;;45.07;26.00;;;4.40;99.90;;;;;;5030112;28;20209;-24
2022/01/13 06:38:32;;;;;;;45.53;25.40;;;4.40;99.90;;;;;;5028617;28;20197;-24
2022/01/13 06:41:01;;;;;;;45.60;25.27;;;4.40;99.90;;;;;;5029792;28;20212;-23
2022/01/13 06:43:29;;;;;;;48.47;26.50;;;4.40;99.90;;;;;;5030028;28;20219;-24
2022/01/13 06:45:56;;;;;;;50.27;25.70;;;4.30;99.90;;;;;;5024804;28;20267;-24
2022/01/13 06:48:24;;;;;;;49.27;26.90;;;4.40;99.90;;;;;;5007942;28;20300;-24
2022/01/13 06:51:11;;;;;;;49.53;25.97;;;4.30;99.90;;;;;;4969468;28;20248;-24
2022/01/13 06:53:40;;;;;;;42.93;23.23;;;4.30;99.90;;;;;;5009916;28;20221;-24
2022/01/13 06:56:10;;;;;;;41.23;23.83;;;4.30;99.90;;;;;;5009777;28;20238;-27
2022/01/13 06:58:38;;;;;;;39.13;22.60;;;4.30;99.90;;;;;;5019644;28;20241;-24
2022/01/13 07:01:09;;;;;;;40.63;22.87;;;4.30;99.90;;;;;;5029844;28;20215;-24
2022/01/13 07:03:40;;;;;;;40.07;21.20;;;4.30;99.90;;;;;;5028581;28;20205;-24
2022/01/13 07:06:07;;;;;;;38.03;22.47;;;4.30;99.90;;;;;;5028335;28;20204;-24
2022/01/13 07:08:34;;;;;;;36.73;22.07;;;4.30;99.90;;;;;;5029689;28;20263;-25
2022/01/13 07:11:05;;;;;;;36.13;21.13;;;4.20;99.90;;;;;;5029053;28;20280;-24
2022/01/13 07:13:33;;;;;;;32.70;20.87;;;4.20;99.90;;;;;;5029449;28;20193;-24
2022/01/13 07:16:01;;;;;;;32.77;20.00;;;4.30;99.90;;;;;;5027990;28;20242;-24
2022/01/13 07:18:29;;;;;;;35.87;21.87;;;4.20;99.90;;;;;;5028435;28;20213;-24
2022/01/13 07:20:57;;;;;;;38.80;21.37;;;4.20;99.90;;;;;;5029794;28;20655;-24
2022/01/13 07:23:24;;;;;;;34.33;21.20;;;4.20;99.90;;;;;;5027431;28;20213;-24
2022/01/13 07:25:51;;;;;;;35.30;21.87;;;4.20;99.90;;;;;;5027214;28;20701;-24
2022/01/13 07:28:18;;;;;;;33.43;20.47;;;4.20;99.90;;;;;;5027575;28;20212;-25
2022/01/13 07:30:46;;;;;;;33.23;19.60;;;4.10;99.90;;;;;;5029058;28;20236;-25
2022/01/13 07:33:13;;;;;;;34.60;21.10;;;4.10;99.90;;;;;;5026562;28;20213;-25
2022/01/13 07:35:40;;;;;;;36.43;21.80;;;4.10;99.90;;;;;;5029161;28;20221;-25
2022/01/13 07:38:07;;;;;;;32.60;20.43;;;4.10;99.90;;;;;;5028739;28;20288;-25
2022/01/13 07:40:35;;;;;;;30.63;19.70;;;4.10;99.90;;;;;;5028966;28;20208;-25
2022/01/13 07:43:02;;;;;;;28.30;17.70;;;4.10;99.90;;;;;;5028256;28;20654;-25
2022/01/13 07:45:29;;;;;;;29.17;18.63;;;4.00;99.90;;;;;;5017716;28;20224;-25
2022/01/13 07:47:57;;;;;;;32.97;17.53;;;4.00;99.90;;;;;;5008219;28;20204;-25
2022/01/13 07:50:32;;;;;;;27.07;17.90;;;4.00;99.90;;;;;;5038625;28;20246;-25
2022/01/13 07:52:59;;;;;;;25.60;17.53;;;4.00;99.90;;;;;;5028562;28;20259;-25
2022/01/13 07:55:31;;;;;;;28.33;17.97;;;4.00;99.90;;;;;;5028694;28;20197;-23
2022/01/13 07:57:58;;;;;;;27.97;17.30;;;4.00;99.90;;;;;;5028139;28;20227;-23
2022/01/13 08:00:25;;;;;;;24.80;16.77;;;4.00;99.90;;;;;;5026991;28;20283;-23
2022/01/13 08:02:57;;;;;;;25.67;16.17;;;4.00;99.90;;;;;;5025844;28;20216;-23
2022/01/13 08:05:25;;;;;;;23.80;16.67;;;3.90;99.90;;;;;;5028832;28;20702;-23
2022/01/13 08:07:52;;;;;;;23.50;16.57;;;3.90;99.90;;;;;;5028204;28;20748;-23
2022/01/13 08:10:19;;;;;;;23.37;16.30;;;3.90;99.90;;;;;;5028479;28;20568;-23
2022/01/13 08:12:47;;;;;;;24.33;16.63;;;3.90;99.90;;;;;;5027950;28;20663;-23
2022/01/13 08:15:35;;;;;;;28.77;17.30;;;3.80;99.90;;;;;;5027336;28;20208;-23
2022/01/13 08:21:08;;;;;;;24.73;16.03;;;3.80;99.90;;;;;;5028119;28;20216;-23
2022/01/13 08:23:35;;;;;;;23.40;15.77;;;3.80;99.90;;;;;;5027692;28;20228;-23
2022/01/13 08:26:05;;;;;;;26.07;17.07;;;3.80;99.90;;;;;;5028010;28;20668;-23
2022/01/13 08:28:33;;;;;;;21.83;15.97;;;3.80;99.90;;;;;;5027681;28;20216;-23
2022/01/13 08:31:05;;;;;;;23.80;15.67;;;3.80;99.90;;;;;;5010525;28;20232;-23
2022/01/13 08:33:33;;;;;;;24.40;17.20;;;3.80;99.90;;;;;;5026951;28;20212;-23
2022/01/13 08:36:02;;;;;;;23.90;16.40;;;3.70;99.90;;;;;;5028047;28;20209;-23
2022/01/13 08:38:34;;;;;;;22.70;15.53;;;3.80;99.90;;;;;;5027541;28;20197;-23
2022/01/13 08:41:02;;;;;;;23.67;16.47;;;3.70;99.90;;;;;;5027519;28;20212;-23
2022/01/13 08:43:29;;;;;;;27.37;15.93;;;3.70;99.90;;;;;;5026597;28;20197;-25
2022/01/13 08:46:00;;;;;;;23.83;16.07;;;3.80;99.90;;;;;;5012975;28;20221;-25
2022/01/13 08:48:28;;;;;;;23.33;16.33;;;3.80;99.90;;;;;;5007389;28;20228;-25
2022/01/13 08:50:56;;;;;;;24.77;16.60;;;3.80;99.90;;;;;;5007598;28;20270;-25
2022/01/13 08:53:23;;;;;;;23.77;15.50;;;3.80;99.90;;;;;;5008089;28;20622;-25
2022/01/13 08:55:51;;;;;;;22.60;15.83;;;3.80;99.90;;;;;;5007460;28;20217;-24
2022/01/13 08:58:24;;;;;;;22.50;15.63;;;3.90;99.90;;;;;;5020155;28;20212;-25
2022/01/13 09:00:55;;;;;;;24.10;16.17;;;3.90;99.90;;;;;;5027528;28;20197;-25
2022/01/13 09:03:23;;;;;;;22.07;15.30;;;3.90;99.90;;;;;;5027007;28;20343;-24
2022/01/13 09:05:50;;;;;;;19.80;14.50;;;3.90;99.90;;;;;;5027434;28;20217;-25
2022/01/13 09:08:23;;;;;;;24.07;16.03;;;3.90;99.90;;;;;;5027366;28;20558;-25
2022/01/13 09:10:51;;;;;;;24.73;16.03;;;4.00;99.90;;;;;;5027191;28;20224;-25
2022/01/13 09:13:20;;;;;;;24.13;16.37;;;3.90;99.90;;;;;;5027440;28;20209;-25
2022/01/13 09:15:58;;;;;;;28.63;17.27;;;4.00;99.90;;;;;;5025877;28;20212;-25
2022/01/13 09:21:13;;;;;;;23.57;14.87;;;4.00;99.90;;;;;;5027518;28;20220;-25
2022/01/13 09:23:43;;;;;;;20.57;15.33;;;4.00;99.90;;;;;;5025725;28;20212;-24
2022/01/13 09:26:10;;;;;;;24.53;16.00;;;4.10;99.90;;;;;;5028646;28;20197;-25
2022/01/13 09:28:37;;;;;;;25.07;16.00;;;4.10;99.90;;;;;;5031070;28;20223;-24
2022/01/13 09:31:06;;;;;;;23.60;15.67;;;4.10;99.90;;;;;;5031155;28;20659;-25
2022/01/13 09:33:34;;;;;;;25.83;16.30;;;4.10;99.90;;;;;;5030937;28;20212;-25
2022/01/13 09:36:03;;;;;;;20.00;14.30;;;4.20;99.90;;;;;;5029840;28;20197;-25
2022/01/13 09:38:33;;;;;;;22.27;15.53;;;4.20;99.90;;;;;;5029511;28;20225;-25
2022/01/13 09:41:03;;;;;;;22.33;15.63;;;4.20;99.90;;;;;;5030858;28;20197;-25
2022/01/13 09:43:30;;;;;;;21.40;15.47;;;4.20;99.90;;;;;;5031244;28;20292;-25
2022/01/13 09:45:59;;;;;;;23.73;16.10;;;4.20;99.90;;;;;;5016405;28;20218;-25
2022/01/13 09:48:28;;;;;;;23.37;15.63;;;4.20;99.90;;;;;;5017455;28;20270;-25
2022/01/13 09:50:58;;;;;;;23.30;15.40;;;4.30;99.90;;;;;;5030872;28;20251;-25
2022/01/13 09:53:25;;;;;;;22.50;15.97;;;4.30;99.90;;;;;;5030573;28;20224;-25
2022/01/13 09:55:53;;;;;;;21.97;15.40;;;4.30;99.90;;;;;;5030575;28;20193;-25
2022/01/13 09:58:20;;;;;;;24.03;16.20;;;4.40;99.90;;;;;;5030776;28;20267;-25
2022/01/13 10:00:50;;;;;;;24.43;15.93;;;4.40;99.90;;;;;;5029351;28;20204;-25
2022/01/13 10:03:25;;;;;;;21.40;15.73;;;4.40;99.90;;;;;;5030102;28;20247;-25
2022/01/13 10:06:01;;;;;;;26.13;17.10;;;4.40;99.90;;;;;;5029217;28;20653;-25
2022/01/13 10:08:50;;;;;;;21.93;16.10;;;4.50;99.90;;;;;;5029241;28;20473;-25
2022/01/13 10:11:46;;;;;;;23.37;15.00;;;4.50;99.90;;;;;;5030059;28;20278;-25
2022/01/13 10:17:06;;;;;;;24.03;16.60;;;4.60;99.90;;;;;;5030484;28;20745;-24
2022/01/13 10:19:36;;;;;;;26.20;16.87;;;4.60;99.90;;;;;;5029638;28;20307;-24
2022/01/13 10:22:14;;;;;;;23.83;16.40;;;4.60;99.90;;;;;;5030538;28;20240;-25
2022/01/13 10:24:44;;;;;;;21.60;14.73;;;4.70;99.90;;;;;;5029900;28;20201;-25
2022/01/13 10:27:15;;;;;;;23.70;16.23;;;4.70;99.90;;;;;;5030101;28;20201;-24
2022/01/13 10:29:54;;;;;;;22.80;15.33;;;4.70;99.90;;;;;;5030180;28;20217;-23
2022/01/13 10:32:31;;;;;;;25.07;16.03;;;4.70;99.90;;;;;;5030077;28;20571;-23
2022/01/13 10:35:03;;;;;;;25.10;16.70;;;4.80;99.90;;;;;;5030015;28;20270;-23
2022/01/13 10:37:35;;;;;;;21.83;15.43;;;4.80;99.90;;;;;;5029486;28;20221;-23
2022/01/13 10:40:21;;;;;;;23.93;16.43;;;4.80;99.90;;;;;;5030061;28;20208;-23
2022/01/13 10:45:40;;;;;;;22.40;15.53;;;4.80;99.90;;;;;;5029835;28;20594;-23
2022/01/13 10:48:11;;;;;;;19.67;14.30;;;4.90;99.90;;;;;;5027857;28;20605;-23
2022/01/13 10:50:55;;;;;;;24.20;15.57;;;4.90;99.90;;;;;;5030044;28;20240;-23
2022/01/13 10:53:25;;;;;;;21.97;14.60;;;4.90;99.90;;;;;;5029774;28;20293;-23
2022/01/13 10:55:58;;;;;;;22.13;15.60;;;4.90;99.90;;;;;;5029601;28;20223;-23
2022/01/13 10:58:28;;;;;;;22.23;16.10;;;4.90;99.90;;;;;;5028544;28;20205;-23
2022/01/13 11:01:00;;;;;;;20.67;15.00;;;5.00;99.90;;;;;;5030109;28;20674;-26
2022/01/13 11:03:30;;;;;;;21.50;15.13;;;5.00;99.90;;;;;;5029188;28;20661;-23
2022/01/13 11:06:02;;;;;;;21.37;15.20;;;5.00;99.90;;;;;;5028098;28;20282;-23
2022/01/13 11:08:41;;;;;;;23.23;15.60;;;5.00;99.90;;;;;;5027740;28;20204;-23
2022/01/13 11:11:22;;;;;;;21.90;15.93;;;5.10;99.90;;;;;;5029056;28;20240;-23
2022/01/13 11:14:03;;;;;;;20.50;15.03;;;5.10;99.90;;;;;;5029331;28;20622;-23
2022/01/13 11:16:31;;;;;;;22.77;14.43;;;5.10;99.90;;;;;;5029620;28;20193;-25
2022/01/13 11:19:01;;;;;;;21.30;15.37;;;5.20;99.90;;;;;;5028409;28;20283;-24
2022/01/13 11:21:30;;;;;;;21.30;14.87;;;5.20;99.90;;;;;;5029413;28;20217;-24
2022/01/13 11:24:01;;;;;;;20.23;14.77;;;5.30;99.90;;;;;;5029143;28;20216;-26
2022/01/13 11:26:28;;;;;;;20.90;14.83;;;5.30;99.90;;;;;;5028750;28;20197;-24
2022/01/13 11:29:00;;;;;;;19.87;15.30;;;5.30;99.90;;;;;;5029553;28;20205;-24
2022/01/13 11:31:28;;;;;;;20.93;14.67;;;5.40;99.90;;;;;;5028516;28;20232;-24
2022/01/13 11:33:56;;;;;;;19.70;14.17;;;5.40;99.90;;;;;;5028250;28;20731;-25
2022/01/13 11:36:24;;;;;;;22.80;15.30;;;5.50;99.90;;;;;;5027683;28;20668;-24
2022/01/13 11:38:59;;;;;;;21.30;14.73;;;5.50;99.90;;;;;;5028686;28;20226;-25
2022/01/13 11:41:27;;;;;;;22.67;14.90;;;5.60;99.90;;;;;;5028547;28;20246;-25
2022/01/13 11:44:16;;;;;;;20.47;13.83;;;5.60;99.90;;;;;;5028561;28;20201;-25
2022/01/13 11:46:48;;;;;;;20.40;13.87;;;5.70;99.90;;;;;;5010140;28;20503;-25
2022/01/13 11:49:20;;;;;;;20.20;14.47;;;5.70;99.90;;;;;;5027632;28;20201;-24
2022/01/13 11:52:01;;;;;;;20.43;14.47;;;5.80;99.90;;;;;;5028503;28;20244;-24
2022/01/13 11:54:35;;;;;;;22.50;14.37;;;5.90;99.90;;;;;;5028133;28;20193;-24
2022/01/13 11:57:25;;;;;;;21.97;14.33;;;5.90;99.90;;;;;;5028068;28;20211;-25
2022/01/13 11:59:55;;;;;;;18.80;14.27;;;6.00;99.90;;;;;;5028337;28;20251;-24
2022/01/13 12:02:38;;;;;;;23.90;14.37;;;6.00;99.90;;;;;;5026869;28;20632;-24
2022/01/13 12:05:14;;;;;;;20.40;13.97;;;6.10;99.90;;;;;;5026586;28;20221;-25
2022/01/13 12:07:45;;;;;;;21.57;14.93;;;6.20;99.90;;;;;;5028100;28;20239;-24
2022/01/13 12:10:49;;;;;;;24.37;15.33;;;6.20;99.90;;;;;;4965971;28;20237;-24
2022/01/13 12:13:29;;;;;;;23.07;14.77;;;6.30;99.90;;;;;;4999185;28;20264;-25
2022/01/13 12:15:56;;;;;;;20.20;13.63;;;6.30;99.90;;;;;;5008684;28;20194;-24
2022/01/13 12:18:52;;;;;;;20.37;14.03;;;6.40;99.90;;;;;;5008091;28;20221;-25
2022/01/13 12:21:32;;;;;;;21.07;14.30;;;6.40;99.90;;;;;;5014550;28;20209;-24
2022/01/13 12:24:00;;;;;;;23.10;14.90;;;6.50;99.90;;;;;;5028079;28;20228;-24
2022/01/13 12:26:32;;;;;;;24.20;13.60;;;6.50;99.90;;;;;;5026441;28;20634;-25
2022/01/13 12:29:22;;;;;;;26.07;15.77;;;6.60;99.90;;;;;;5026549;28;20259;-24
2022/01/13 12:31:55;;;;;;;23.80;14.40;;;6.60;99.90;;;;;;5027786;28;20240;-25
2022/01/13 12:34:28;;;;;;;25.40;15.73;;;6.70;99.90;;;;;;5027502;28;20276;-25
2022/01/13 12:36:57;;;;;;;20.37;14.77;;;6.70;99.90;;;;;;5028072;28;20331;-24
2022/01/13 12:39:25;;;;;;;21.63;15.07;;;6.80;99.90;;;;;;5027552;28;20209;-25
2022/01/13 12:41:58;;;;;;;21.80;14.97;;;6.80;99.90;;;;;;5026167;28;20211;-25
2022/01/13 12:47:13;;;;;;;24.03;15.93;;;6.90;99.90;;;;;;5007043;28;20205;-25
2022/01/13 12:49:54;;;;;;;24.53;16.60;;;7.00;99.90;;;;;;5020487;28;20252;-25
2022/01/13 12:52:23;;;;;;;25.70;17.07;;;7.00;99.90;;;;;;5006119;28;20237;-25
2022/01/13 12:54:51;;;;;;;25.53;18.10;;;7.00;99.90;;;;;;5040941;28;20221;-26
2022/01/13 12:57:49;;;;;;;26.10;17.30;;;7.10;99.90;;;;;;5027052;28;20219;-26
2022/01/13 13:00:25;;;;;;;26.63;17.67;;;7.10;99.90;;;;;;5027025;28;20663;-25
2022/01/13 13:03:05;;;;;;;27.17;18.13;;;7.10;99.90;;;;;;5026414;28;20687;-25
2022/01/13 13:05:40;;;;;;;25.50;17.53;;;7.10;99.90;;;;;;5027246;28;20201;-26
2022/01/13 13:08:12;;;;;;;29.47;18.57;;;7.10;99.90;;;;;;5027124;28;20231;-26
2022/01/13 13:10:50;;;;;;;29.53;18.70;;;7.10;99.90;;;;;;5027034;28;20243;-25
2022/01/13 13:13:19;;;;;;;33.03;20.27;;;7.10;99.90;;;;;;5027122;28;20205;-26
2022/01/13 13:15:54;;;;;;;29.27;18.60;;;7.10;99.90;;;;;;5027035;28;20197;-25
2022/01/13 13:18:25;;;;;;;30.27;19.23;;;7.20;99.90;;;;;;5026318;28;20546;-25
2022/01/13 13:20:54;;;;;;;27.10;18.63;;;7.20;99.90;;;;;;5025992;28;20211;-25
2022/01/13 13:23:25;;;;;;;27.07;18.30;;;7.20;99.90;;;;;;5027154;28;20509;-26